Terminal Aerodrome Forecast
Issued by NWS Riverton, WY

Home | Current Version | Previous Version | Text Only | Print | Product List | Glossary On
Versions: 1 2 3 4 5 6 7 8 9 10 11 12 13 14 15
000
FTUS45 KRIW 281120
TAFRIW
TAF
KRIW 281120Z 2812/2912 28007KT P6SM FEW120
     FM281800 26011KT P6SM SCT110
     FM282100 VRB18G30KT P6SM VCTS SCT100CB BKN150
     FM290300 33011KT P6SM VCSH BKN100
     FM290600 VRB06KT P6SM SCT100=

USA.gov is the U.S. government's official web portal to all federal, state and local government web resources and services.